Time;durP1;ratioP1;P1;durP2;ratioP2;P2;SDS_P1;SDS_P2;PMS_P1;PMS_P2;Temp;Humidity;BMP_temperature;BMP_pressure;BME280_temperature;BME280_humidity;BME280_pressure;Samples;Min_cycle;Max_cycle;Signal;HPM_P1;HPM_P2
2022/12/17 13:06:40;;;;;;;0.52;0.20;;;;;;;-0.64;71.54;102082.94;5022080;28;20417;-70
2022/12/17 13:09:21;;;;;;;0.10;0.10;;;;;;;-0.65;71.34;102087.19;5018887;28;20921;-71
2022/12/17 13:11:50;;;;;;;1.23;0.10;;;;;;;-0.68;71.45;102087.94;5018084;28;20046;-71
2022/12/17 13:14:22;;;;;;;0.60;0.10;;;;;;;-0.65;71.21;102082.06;5020527;28;20054;-71
2022/12/17 13:16:54;;;;;;;1.92;0.10;;;;;;;-0.64;71.17;102094.06;5018963;28;20137;-70
2022/12/17 13:19:35;;;;;;;0.15;0.10;;;;;;;-0.64;71.95;102082.94;5018198;28;20050;-70
2022/12/17 13:22:26;;;;;;;0.13;0.10;;;;;;;-0.63;71.19;102080.44;5017563;28;20054;-70
2022/12/17 13:24:55;;;;;;;1.88;0.10;;;;;;;-0.65;71.62;102074.38;5015611;28;20084;-72
2022/12/17 13:27:30;;;;;;;1.17;0.17;;;;;;;-0.64;71.77;102057.28;5014392;28;20046;-71
2022/12/17 13:29:57;;;;;;;2.58;0.57;;;;;;;-0.63;71.50;102054.75;5022757;28;20056;-71
2022/12/17 13:32:31;;;;;;;0.50;0.10;;;;;;;-0.62;71.74;102046.28;5017421;28;20041;-71
2022/12/17 13:35:15;;;;;;;0.22;0.10;;;;;;;-0.66;71.44;102048.63;5023520;28;20655;-70
2022/12/17 13:37:52;;;;;;;1.77;0.10;;;;;;;-0.61;71.44;102065.13;5020470;28;20053;-71
2022/12/17 13:40:39;;;;;;;0.55;0.10;;;;;;;-0.63;71.56;102059.91;5015437;28;20129;-71
2022/12/17 13:43:16;;;;;;;0.60;0.10;;;;;;;-0.60;71.13;102070.31;5025492;28;20556;-70
2022/12/17 13:45:43;;;;;;;0.77;0.10;;;;;;;-0.61;71.20;102062.56;5024042;28;20048;-70
2022/12/17 13:48:21;;;;;;;0.80;0.10;;;;;;;-0.61;71.38;102080.53;5019379;28;20049;-70
2022/12/17 13:50:54;;;;;;;2.03;0.10;;;;;;;-0.60;71.01;102075.44;5019333;28;20132;-70
2022/12/17 13:53:20;;;;;;;0.50;0.10;;;;;;;-0.69;71.10;102062.19;5020053;28;20049;-70
2022/12/17 13:55:51;;;;;;;0.22;0.17;;;;;;;-0.62;70.97;102069.38;5020810;28;20054;-70
2022/12/17 13:58:23;;;;;;;0.80;0.10;;;;;;;-0.62;71.27;102081.34;5020745;28;20231;-70
2022/12/17 14:00:50;;;;;;;0.88;0.30;;;;;;;-0.63;71.42;102082.13;5019830;28;20501;-71
2022/12/17 14:03:21;;;;;;;0.88;0.10;;;;;;;-0.63;70.79;102080.44;5022104;28;20046;-70
2022/12/17 14:05:48;;;;;;;2.80;0.30;;;;;;;-0.65;70.93;102076.06;5024906;28;20065;-70
2022/12/17 14:08:19;;;;;;;0.40;0.10;;;;;;;-0.65;70.64;102076.06;5022263;28;20042;-70
2022/12/17 14:12:20;;;;;;;1.00;0.30;;;;;;;-0.66;71.22;102072.59;5020683;28;20046;-70
2022/12/17 14:13:38;;;;;;;0.82;0.10;;;;;;;-0.67;71.36;102075.97;5019464;28;20108;-69
2022/12/17 14:16:06;;;;;;;1.25;0.10;;;;;;;-0.68;70.87;102077.66;5020804;28;20049;-70
2022/12/17 14:18:34;;;;;;;2.22;0.25;;;;;;;-0.68;70.52;102079.34;5021373;28;20133;-70
2022/12/17 14:21:01;;;;;;;2.65;0.15;;;;;;;-0.68;70.97;102067.41;5022220;28;20103;-70
2022/12/17 14:23:30;;;;;;;1.80;0.10;;;;;;;-0.68;70.82;102077.66;5018892;28;20087;-69
2022/12/17 14:25:57;;;;;;;1.13;0.10;;;;;;;-0.68;70.63;102071.66;5022802;28;20045;-69
2022/12/17 14:28:30;;;;;;;1.50;0.20;;;;;;;-0.66;71.12;102079.41;5022142;28;20088;-69
2022/12/17 14:31:04;;;;;;;0.88;0.20;;;;;;;-0.66;70.99;102076.84;5021747;28;20559;-69
2022/12/17 14:33:35;;;;;;;0.95;0.10;;;;;;;-0.68;70.65;102072.53;5012130;28;20469;-68
2022/12/17 14:36:05;;;;;;;0.40;0.13;;;;;;;-0.68;70.90;102069.97;5015185;28;20117;-68
2022/12/17 14:38:32;;;;;;;0.52;0.20;;;;;;;-0.68;71.18;102063.97;5016788;28;20099;-68
2022/12/17 14:42:24;;;;;;;1.13;0.10;;;;;;;-0.67;71.33;102063.13;5015184;28;20041;-69
2022/12/17 14:43:56;;;;;;;0.85;0.50;;;;;;;-0.73;71.12;102048.34;5016857;28;20580;-69
2022/12/17 14:46:24;;;;;;;0.80;0.30;;;;;;;-0.71;71.11;102059.56;5014372;28;20074;-68
2022/12/17 14:49:02;;;;;;;3.03;0.40;;;;;;;-0.69;71.58;102072.44;5013697;28;20460;-68
2022/12/17 14:51:32;;;;;;;0.52;0.20;;;;;;;-0.69;71.31;102072.44;5012307;28;20600;-68
2022/12/17 14:54:07;;;;;;;1.05;0.30;;;;;;;-0.70;71.45;102068.13;5018227;28;20135;-69
2022/12/17 14:56:34;;;;;;;1.42;0.22;;;;;;;-0.69;71.06;102065.63;5021006;28;20398;-69
2022/12/17 14:59:01;;;;;;;0.38;0.20;;;;;;;-0.69;71.18;102075.00;5018019;28;20065;-68
2022/12/17 15:01:28;;;;;;;2.58;0.80;;;;;;;-0.69;71.52;102070.75;5020660;28;20052;-69
2022/12/17 15:03:58;;;;;;;1.00;0.73;;;;;;;-0.68;71.05;102062.25;5019124;28;20493;-68
2022/12/17 15:06:26;;;;;;;1.38;0.20;;;;;;;-0.68;71.28;102062.25;5019878;28;20049;-68
2022/12/17 15:08:54;;;;;;;2.00;0.30;;;;;;;-0.66;71.42;102064.00;5021039;28;20527;-68
2022/12/17 15:11:23;;;;;;;4.68;0.30;;;;;;;-0.67;71.53;102070.84;5018307;28;20049;-68
2022/12/17 15:13:49;;;;;;;2.00;0.40;;;;;;;-0.65;71.14;102070.94;5019645;28;20571;-67
2022/12/17 15:16:16;;;;;;;2.65;0.50;;;;;;;-0.65;71.03;102055.53;5019935;28;20064;-68
2022/12/17 15:18:43;;;;;;;2.67;0.40;;;;;;;-0.65;71.31;102060.66;5018529;28;20049;-69
2022/12/17 15:21:11;;;;;;;2.58;0.40;;;;;;;-0.65;71.00;102060.66;5015134;28;20532;-68
2022/12/17 15:23:42;;;;;;;0.88;0.35;;;;;;;-0.69;70.88;102054.47;5019936;28;20054;-69
2022/12/17 15:26:10;;;;;;;0.68;0.38;;;;;;;-0.70;70.96;102058.75;5020707;28;20104;-68
2022/12/17 15:28:36;;;;;;;0.57;0.22;;;;;;;-0.69;70.97;102057.03;5017919;28;20050;-69
2022/12/17 15:31:04;;;;;;;1.00;0.30;;;;;;;-0.66;70.86;102064.00;5019442;28;20049;-68
2022/12/17 15:33:30;;;;;;;0.75;0.40;;;;;;;-0.67;70.78;102065.72;5019806;28;20104;-68
2022/12/17 15:35:58;;;;;;;0.90;0.30;;;;;;;-0.67;71.03;102068.28;5019777;28;20084;-68
2022/12/17 15:38:26;;;;;;;5.38;0.73;;;;;;;-0.68;70.90;102059.69;5020249;28;20045;-68
2022/12/17 15:40:53;;;;;;;2.97;1.05;;;;;;;-0.70;70.95;102060.44;5020522;28;20045;-68
2022/12/17 15:43:19;;;;;;;3.47;0.47;;;;;;;-0.71;70.32;102061.25;5019032;28;20053;-68
2022/12/17 15:45:47;;;;;;;3.72;0.60;;;;;;;-0.71;70.21;102059.56;5019416;28;20049;-68
2022/12/17 15:48:16;;;;;;;3.05;0.38;;;;;;;-0.72;70.40;102055.22;5018001;28;20141;-68
2022/12/17 15:50:43;;;;;;;4.00;0.40;;;;;;;-0.73;70.68;102050.91;5015586;28;20045;-69
2022/12/17 15:53:10;;;;;;;3.15;0.38;;;;;;;-0.74;70.72;102044.00;5018410;28;20042;-69
2022/12/17 15:55:39;;;;;;;2.70;0.50;;;;;;;-0.77;70.45;102046.44;5014751;28;20566;-69
2022/12/17 15:58:07;;;;;;;2.55;0.30;;;;;;;-0.77;70.38;102041.31;5020081;28;20068;-69
2022/12/17 16:00:35;;;;;;;1.17;0.30;;;;;;;-0.79;69.82;102053.16;5020001;28;20103;-69
2022/12/17 16:03:01;;;;;;;1.00;0.40;;;;;;;-0.82;69.45;102031.63;5015734;28;20069;-69
2022/12/17 16:05:28;;;;;;;1.00;0.30;;;;;;;-0.82;69.45;102031.63;5018872;28;20464;-69
2022/12/17 16:07:57;;;;;;;1.65;0.30;;;;;;;-0.84;69.75;102033.22;5017745;28;20659;-69
2022/12/17 16:10:24;;;;;;;2.55;0.40;;;;;;;-0.88;69.60;102029.66;5016613;28;20069;-69
2022/12/17 16:12:52;;;;;;;3.05;0.40;;;;;;;-0.90;69.81;102038.94;5016363;28;20049;-69
2022/12/17 16:15:19;;;;;;;2.25;0.38;;;;;;;-0.89;69.70;102039.81;5018575;28;20058;-69
2022/12/17 16:17:46;;;;;;;2.17;0.50;;;;;;;-0.91;70.00;102044.91;5016454;28;20045;-69
2022/12/17 16:20:12;;;;;;;2.35;0.40;;;;;;;-0.91;69.83;102050.03;5015352;28;20462;-69
2022/12/17 16:22:39;;;;;;;1.90;0.40;;;;;;;-0.92;69.60;102046.56;5015055;28;20515;-69
2022/12/17 16:25:06;;;;;;;1.83;0.30;;;;;;;-0.94;69.79;102043.06;5014107;28;20493;-69
2022/12/17 16:27:33;;;;;;;1.98;0.60;;;;;;;-0.99;69.84;102035.94;5017165;28;20057;-69
2022/12/17 16:30:02;;;;;;;0.80;0.30;;;;;;;-0.97;69.56;102052.25;5015643;28;20049;-69
2022/12/17 16:32:29;;;;;;;3.13;0.20;;;;;;;-0.98;70.13;102047.94;5015664;28;20470;-69
2022/12/17 16:34:55;;;;;;;4.32;0.30;;;;;;;-0.98;69.53;102051.38;5012541;28;20057;-68
2022/12/17 16:37:22;;;;;;;2.33;0.40;;;;;;;-1.00;69.08;102054.69;5016302;28;20057;-69
2022/12/17 16:39:50;;;;;;;1.15;0.40;;;;;;;-1.03;69.62;102062.22;5016677;28;20091;-68
2022/12/17 16:42:16;;;;;;;2.50;0.30;;;;;;;-1.03;69.86;102075.91;5019212;28;20505;-68
2022/12/17 16:44:43;;;;;;;1.05;0.30;;;;;;;-1.05;69.80;102086.91;5017244;28;20053;-68
2022/12/17 16:47:11;;;;;;;0.85;0.77;;;;;;;-1.05;69.12;102079.22;5016718;28;20049;-68
2022/12/17 16:49:38;;;;;;;3.40;0.30;;;;;;;-1.08;69.84;102085.09;5016870;28;20049;-68
2022/12/17 16:52:05;;;;;;;2.25;0.30;;;;;;;-1.11;69.74;102079.81;5017783;28;20050;-68
2022/12/17 16:54:32;;;;;;;1.73;0.20;;;;;;;-1.09;69.45;102077.31;5017583;28;20061;-68
2022/12/17 16:57:00;;;;;;;2.17;0.38;;;;;;;-1.11;69.70;102078.91;5014382;28;20588;-68
2022/12/17 16:59:27;;;;;;;1.33;0.90;;;;;;;-1.13;69.99;102086.53;5016389;28;20046;-68
2022/12/17 17:01:55;;;;;;;0.85;0.30;;;;;;;-1.15;69.54;102089.00;5018624;28;20588;-68
2022/12/17 17:04:23;;;;;;;2.85;0.30;;;;;;;-1.17;69.21;102085.53;5018004;28;20046;-68
2022/12/17 17:06:52;;;;;;;0.60;0.30;;;;;;;-1.19;69.72;102076.84;5014906;28;20049;-68
2022/12/17 17:09:21;;;;;;;1.98;0.25;;;;;;;-1.20;69.35;102084.47;5023635;28;20088;-68
2022/12/17 17:11:48;;;;;;;1.05;0.40;;;;;;;-1.23;69.34;102100.56;5023620;28;20552;-67
2022/12/17 17:14:15;;;;;;;0.40;0.30;;;;;;;-1.24;69.09;102098.81;5019831;28;20053;-68
2022/12/17 17:16:41;;;;;;;0.95;0.40;;;;;;;-1.27;69.47;102098.66;5016635;28;20115;-68
2022/12/17 17:19:08;;;;;;;2.85;0.30;;;;;;;-1.29;69.58;102095.13;5017049;28;20080;-68
2022/12/17 17:21:37;;;;;;;1.05;0.30;;;;;;;-1.30;69.40;102098.50;5023382;28;20123;-68
2022/12/17 17:24:08;;;;;;;1.92;0.30;;;;;;;-1.32;69.08;102105.22;5020149;28;20049;-68
2022/12/17 17:26:35;;;;;;;3.17;0.50;;;;;;;-1.34;69.07;102104.25;5013701;28;20167;-68
2022/12/17 17:29:03;;;;;;;2.22;0.50;;;;;;;-1.36;69.12;102106.75;5017676;28;20049;-68
2022/12/17 17:31:30;;;;;;;1.30;0.30;;;;;;;-1.39;69.52;102106.59;5025807;28;20058;-69
2022/12/17 17:33:57;;;;;;;0.55;0.20;;;;;;;-1.40;69.30;102115.06;5019637;28;20108;-69
2022/12/17 17:36:26;;;;;;;0.50;0.30;;;;;;;-1.62;69.20;102084.06;5016680;28;20054;-69
2022/12/17 17:38:55;;;;;;;0.60;0.30;;;;;;;-1.46;69.28;102113.91;5020814;28;20053;-69
2022/12/17 17:41:23;;;;;;;1.80;0.50;;;;;;;-1.47;69.20;102109.59;5019107;28;20543;-69
2022/12/17 17:43:53;;;;;;;3.67;0.47;;;;;;;-1.48;69.05;102115.50;5018961;28;20049;-69
2022/12/17 17:46:20;;;;;;;0.77;0.45;;;;;;;-1.51;69.13;102112.75;5019378;28;20042;-68
2022/12/17 17:48:48;;;;;;;1.95;0.50;;;;;;;-1.52;68.95;102126.38;5015289;28;20046;-69
2022/12/17 17:51:16;;;;;;;2.55;0.40;;;;;;;-1.54;69.06;102121.16;5018701;28;20502;-69
2022/12/17 17:53:43;;;;;;;1.83;0.50;;;;;;;-1.56;69.13;102129.59;5017310;28;20049;-69
2022/12/17 17:56:22;;;;;;;3.83;0.60;;;;;;;-1.58;68.86;102138.06;5018160;28;20119;-76
2022/12/17 17:58:51;;;;;;;4.82;0.75;;;;;;;-1.62;69.25;102131.03;5021787;28;20046;-77
2022/12/17 18:01:24;;;;;;;7.50;1.75;;;;;;;-1.65;69.05;102141.13;5024434;28;20057;-76
2022/12/17 18:03:58;;;;;;;1.70;0.40;;;;;;;-1.66;68.95;102146.16;5017877;28;20078;-77
2022/12/17 18:06:26;;;;;;;3.08;0.70;;;;;;;-1.67;69.47;102147.84;5028528;28;20077;-77
2022/12/17 18:08:55;;;;;;;2.88;0.68;;;;;;;-1.68;69.45;102140.06;5028173;28;20045;-77
2022/12/17 18:11:24;;;;;;;3.00;0.50;;;;;;;-1.73;69.57;102137.28;4990280;28;20070;-77
2022/12/17 18:13:56;;;;;;;2.58;0.40;;;;;;;-1.73;69.26;102132.16;5024155;28;20398;-78
2022/12/17 18:16:25;;;;;;;3.40;0.50;;;;;;;-1.76;68.97;102142.25;5027304;28;20188;-77
2022/12/17 18:18:53;;;;;;;2.42;0.68;;;;;;;-1.77;69.14;102143.00;5022072;28;20594;-77
2022/12/17 18:21:20;;;;;;;2.42;0.73;;;;;;;-1.79;69.30;102138.59;5020491;28;20050;-80
2022/12/17 18:23:47;;;;;;;5.47;1.13;;;;;;;-1.85;68.71;102132.38;5019825;28;20046;-80
2022/12/17 18:26:16;;;;;;;2.50;0.80;;;;;;;-1.84;68.79;102134.13;5022523;28;20064;-79
2022/12/17 18:28:45;;;;;;;1.75;0.63;;;;;;;-1.87;69.32;102140.78;5030246;28;20049;-79
2022/12/17 18:31:15;;;;;;;1.58;0.80;;;;;;;-1.88;68.66;102141.56;5028852;28;20042;-79
2022/12/17 18:33:45;;;;;;;4.82;1.33;;;;;;;-1.92;68.96;102148.19;5027584;28;20049;-79
2022/12/17 18:36:14;;;;;;;4.78;0.80;;;;;;;-2.00;68.82;102135.78;5025283;28;20053;-79
2022/12/17 18:38:41;;;;;;;3.60;0.88;;;;;;;-1.98;68.77;102160.69;5031592;28;20045;-79
2022/12/17 18:43:53;;;;;;;2.75;0.80;;;;;;;-2.09;68.71;102142.16;5023962;28;20046;-79
2022/12/17 18:46:19;;;;;;;1.98;0.50;;;;;;;-2.06;68.95;102149.13;5024566;28;20104;-79
2022/12/17 18:48:46;;;;;;;1.02;0.50;;;;;;;-2.08;68.58;102153.28;5023745;28;20513;-79
2022/12/17 18:51:13;;;;;;;2.10;1.10;;;;;;;-2.13;69.09;102145.34;5022660;28;20107;-78
2022/12/17 18:53:40;;;;;;;3.47;1.20;;;;;;;-2.14;68.82;102156.38;5022915;28;20489;-79
2022/12/17 18:56:09;;;;;;;1.20;0.93;;;;;;;-2.15;68.61;102148.63;5026198;28;20115;-78
2022/12/17 18:58:36;;;;;;;5.97;1.60;;;;;;;-2.23;69.11;102145.63;5026286;28;20042;-78
2022/12/17 19:01:04;;;;;;;9.77;2.92;;;;;;;-2.27;69.07;102147.16;5022028;28;20081;-78
2022/12/17 19:03:31;;;;;;;13.43;5.13;;;;;;;-2.24;69.09;102150.69;5018455;28;20049;-78
2022/12/17 19:05:58;;;;;;;10.10;3.60;;;;;;;-2.28;69.06;102163.31;5020404;28;20058;-77
2022/12/17 19:08:25;;;;;;;9.20;3.40;;;;;;;-2.29;69.01;102163.22;5024609;28;20608;-78
2022/12/17 19:10:55;;;;;;;6.32;1.83;;;;;;;-2.32;68.95;102165.59;5022981;28;20488;-78
2022/12/17 19:13:21;;;;;;;7.35;2.22;;;;;;;-2.35;69.01;102174.00;5024053;28;20107;-78
2022/12/17 19:15:48;;;;;;;5.10;1.48;;;;;;;-2.36;68.95;102179.00;5022581;28;20053;-78
2022/12/17 19:18:16;;;;;;;3.58;0.65;;;;;;;-2.40;69.04;102184.75;5019340;28;20046;-78
2022/12/17 19:20:43;;;;;;;3.65;1.00;;;;;;;-2.42;68.94;102181.22;5003563;28;20479;-79
2022/12/17 19:23:10;;;;;;;3.95;1.08;;;;;;;-2.44;69.02;102181.16;5025055;28;20045;-78
2022/12/17 19:25:36;;;;;;;2.03;1.00;;;;;;;-2.45;68.81;102186.16;5024735;28;20046;-78
2022/12/17 19:28:03;;;;;;;7.38;1.20;;;;;;;-2.47;69.06;102180.97;5035195;28;20053;-78
2022/12/17 19:30:30;;;;;;;3.83;1.35;;;;;;;-2.50;68.99;102188.50;5024913;28;20045;-78
2022/12/17 19:32:57;;;;;;;5.10;1.23;;;;;;;-2.52;69.13;102188.38;5024560;28;20496;-77
2022/12/17 19:35:25;;;;;;;1.52;0.80;;;;;;;-2.53;69.00;102184.06;5023359;28;20057;-78
2022/12/17 19:37:52;;;;;;;1.90;0.90;;;;;;;-2.51;69.13;102184.16;5028834;28;20684;-78
2022/12/17 19:40:18;;;;;;;2.05;0.73;;;;;;;-2.52;69.38;102182.38;5020172;28;20107;-78
2022/12/17 19:42:45;;;;;;;3.15;0.90;;;;;;;-2.52;69.22;102185.81;5026841;28;20096;-78
2022/12/17 19:45:12;;;;;;;3.35;1.42;;;;;;;-2.53;69.15;102185.75;5027382;28;20512;-77
2022/12/17 19:47:38;;;;;;;1.85;0.77;;;;;;;-2.58;69.34;102185.47;5029711;28;20049;-78
2022/12/17 19:50:06;;;;;;;2.40;1.05;;;;;;;-2.54;69.06;102187.41;5029664;28;20076;-77
2022/12/17 19:52:34;;;;;;;2.50;1.10;;;;;;;-2.55;69.16;102177.09;5029771;28;20477;-78
2022/12/17 19:55:01;;;;;;;3.00;1.30;;;;;;;-2.54;69.20;102186.53;5025641;28;20049;-78
2022/12/17 19:57:28;;;;;;;3.83;1.50;;;;;;;-2.56;69.36;102178.78;5032075;28;20409;-78
2022/12/17 19:59:54;;;;;;;2.55;1.15;;;;;;;-2.55;69.30;102182.22;5023297;28;20408;-78
2022/12/17 20:02:21;;;;;;;4.72;1.23;;;;;;;-2.56;69.51;102189.00;5027237;28;20041;-78
2022/12/17 20:04:48;;;;;;;4.28;1.15;;;;;;;-2.55;69.30;102190.78;5025454;28;20053;-78
2022/12/17 20:07:15;;;;;;;6.70;2.13;;;;;;;-2.56;69.63;102186.47;5025137;28;20049;-78
2022/12/17 20:09:44;;;;;;;2.08;0.85;;;;;;;-2.56;69.34;102196.69;5024354;28;20052;-78
2022/12/17 20:12:11;;;;;;;2.42;1.10;;;;;;;-2.57;69.61;102199.16;5022201;28;20046;-77
2022/12/17 20:14:37;;;;;;;1.77;1.17;;;;;;;-2.58;69.53;102198.28;5027421;28;20406;-78
2022/12/17 20:17:04;;;;;;;2.97;0.95;;;;;;;-2.57;69.48;102207.69;5026311;28;20046;-78
2022/12/17 20:19:33;;;;;;;3.58;1.52;;;;;;;-2.58;69.74;102211.06;5022600;28;20158;-78
2022/12/17 20:22:01;;;;;;;2.70;0.98;;;;;;;-2.59;69.78;102206.75;5025943;28;20057;-78
2022/12/17 20:24:28;;;;;;;4.88;1.70;;;;;;;-2.65;69.68;102201.25;5025263;28;20533;-77
2022/12/17 20:26:57;;;;;;;4.63;1.77;;;;;;;-2.61;69.91;102200.66;5020769;28;20049;-78
2022/12/17 20:29:25;;;;;;;2.22;1.42;;;;;;;-2.60;70.00;102194.72;5024775;28;21445;-78
2022/12/17 20:31:53;;;;;;;2.38;1.40;;;;;;;-2.59;70.34;102204.19;5022500;28;20046;-78
2022/12/17 20:34:20;;;;;;;6.82;1.98;;;;;;;-2.56;70.33;102206.94;5028701;28;20099;-78
2022/12/17 20:36:48;;;;;;;2.65;1.15;;;;;;;-2.54;70.57;102212.13;5024890;28;20049;-78
2022/12/17 20:39:15;;;;;;;3.67;1.98;;;;;;;-2.53;70.18;102209.66;5019563;28;20067;-78
2022/12/17 20:41:44;;;;;;;3.22;1.33;;;;;;;-2.54;70.54;102196.75;5024958;28;20061;-77
2022/12/17 20:44:14;;;;;;;2.97;1.60;;;;;;;-2.51;70.87;102197.81;5026350;28;20066;-78
2022/12/17 20:46:42;;;;;;;3.65;1.60;;;;;;;-2.49;70.54;102211.59;5024648;28;20053;-78
2022/12/17 20:49:11;;;;;;;2.78;1.30;;;;;;;-2.47;71.14;102211.69;5025953;28;20145;-77
2022/12/17 20:51:38;;;;;;;4.00;1.58;;;;;;;-2.46;70.48;102207.44;5029366;28;20041;-78
2022/12/17 20:54:07;;;;;;;4.90;1.52;;;;;;;-2.44;70.75;102201.63;5032662;28;20111;-78
2022/12/17 20:56:35;;;;;;;2.92;1.38;;;;;;;-2.41;71.00;102204.34;5010572;28;20054;-78
2022/12/17 20:59:04;;;;;;;6.43;1.83;;;;;;;-2.38;71.41;102199.41;5030058;28;20095;-78
2022/12/17 21:01:34;;;;;;;6.15;1.55;;;;;;;-2.38;71.05;102199.41;5017365;28;20092;-78
2022/12/17 21:04:01;;;;;;;3.90;1.73;;;;;;;-2.35;71.21;102198.72;5018932;28;20098;-78
2022/12/17 21:06:31;;;;;;;4.93;2.40;;;;;;;-2.33;71.13;102202.25;5017280;28;20561;-78
2022/12/17 21:08:58;;;;;;;5.90;2.35;;;;;;;-2.32;70.82;102197.19;5024802;28;20056;-78
2022/12/17 21:11:28;;;;;;;7.13;1.90;;;;;;;-2.28;70.83;102195.69;5020785;28;20761;-78
2022/12/17 21:13:56;;;;;;;6.25;2.50;;;;;;;-2.28;71.22;102195.69;5024150;28;20069;-78
2022/12/17 21:16:26;;;;;;;4.65;2.53;;;;;;;-2.24;71.09;102194.19;5022775;28;20512;-78
2022/12/17 21:18:54;;;;;;;5.57;2.72;;;;;;;-2.23;71.00;102194.28;5022588;28;20057;-78
2022/12/17 21:21:22;;;;;;;3.95;1.95;;;;;;;-2.21;71.15;102194.38;5022368;28;20053;-79
2022/12/17 21:23:50;;;;;;;7.82;2.50;;;;;;;-2.20;71.40;102193.56;5027510;28;20054;-78
2022/12/17 21:26:19;;;;;;;4.35;2.20;;;;;;;-2.16;71.25;102192.91;5024339;28;20041;-78
2022/12/17 21:28:48;;;;;;;6.97;2.80;;;;;;;-2.14;71.27;102196.47;5026755;28;20050;-78
2022/12/17 21:31:17;;;;;;;4.20;2.30;;;;;;;-2.16;71.65;102191.28;5024768;28;20042;-79
2022/12/17 21:33:43;;;;;;;5.88;2.50;;;;;;;-2.24;71.38;102172.03;5027117;28;20073;-78
2022/12/17 21:36:12;;;;;;;7.28;2.78;;;;;;;-2.08;71.62;102197.72;5029034;28;20054;-78
2022/12/17 21:38:38;;;;;;;18.00;3.72;;;;;;;-2.06;71.42;102200.34;5025278;28;20049;-78
2022/12/17 21:41:06;;;;;;;5.50;2.72;;;;;;;-2.03;71.52;102205.63;5021437;28;20050;-78
2022/12/17 21:43:33;;;;;;;5.85;2.92;;;;;;;-2.03;71.83;102201.38;5025294;28;20726;-78
2022/12/17 21:46:00;;;;;;;7.18;3.35;;;;;;;-2.00;71.47;102204.91;5022218;28;20041;-78
2022/12/17 21:48:27;;;;;;;6.00;2.80;;;;;;;-1.98;71.86;102200.78;5021812;28;20041;-78
2022/12/17 21:50:54;;;;;;;8.13;3.20;;;;;;;-1.99;71.46;102194.78;5022458;28;20049;-79
2022/12/17 21:53:22;;;;;;;10.40;4.22;;;;;;;-1.95;71.66;102200.94;5019989;28;20052;-78
2022/12/17 21:55:50;;;;;;;5.95;3.00;;;;;;;-1.96;72.26;102204.31;5017542;28;20625;-79
2022/12/17 21:58:17;;;;;;;8.75;3.67;;;;;;;-1.94;71.70;102203.56;5014626;28;20531;-78
2022/12/17 22:00:44;;;;;;;6.63;2.40;;;;;;;-2.06;71.95;102185.84;5014747;28;20651;-78
2022/12/17 22:03:11;;;;;;;7.05;3.15;;;;;;;-1.90;72.33;102212.31;5020200;28;20042;-78
2022/12/17 22:05:38;;;;;;;8.65;3.65;;;;;;;-1.89;72.01;102209.84;5020588;28;20045;-70
2022/12/17 22:08:05;;;;;;;8.27;3.88;;;;;;;-1.85;72.05;102213.44;5012033;28;20539;-69
2022/12/17 22:10:33;;;;;;;6.05;2.97;;;;;;;-1.85;71.91;102211.78;5011599;28;20046;-69
2022/12/17 22:15:46;;;;;;;6.68;3.95;;;;;;;-1.81;72.21;102225.63;4995916;28;20057;-69
2022/12/17 22:18:13;;;;;;;7.72;3.17;;;;;;;-1.80;71.91;102219.69;5014367;28;20739;-69
2022/12/17 22:20:40;;;;;;;10.73;3.10;;;;;;;-1.78;72.08;102215.53;5013882;28;20441;-69
2022/12/17 22:23:06;;;;;;;9.02;3.10;;;;;;;-1.76;72.32;102219.09;5013406;28;20865;-69
2022/12/17 22:25:37;;;;;;;6.72;3.80;;;;;;;-1.75;71.80;102220.84;5013044;28;20049;-69
2022/12/17 22:28:05;;;;;;;6.20;3.00;;;;;;;-1.73;71.57;102221.81;5014588;28;20046;-69
2022/12/17 22:33:27;;;;;;;7.60;3.30;;;;;;;-1.70;71.59;102218.53;4990176;28;20096;-69
2022/12/17 22:35:59;;;;;;;6.80;4.03;;;;;;;-1.69;72.06;102220.28;5007115;28;20782;-69
2022/12/17 22:38:26;;;;;;;7.43;3.63;;;;;;;-1.68;71.90;102217.81;5012922;28;20042;-70
2022/12/17 22:40:54;;;;;;;8.52;4.10;;;;;;;-1.67;71.82;102214.47;5012283;28;20501;-69
2022/12/17 22:43:29;;;;;;;6.57;3.30;;;;;;;-1.65;72.37;102220.56;5013412;28;20536;-69
2022/12/17 22:45:59;;;;;;;10.55;4.05;;;;;;;-1.69;71.88;102212.59;5015073;28;20072;-69
2022/12/17 22:48:27;;;;;;;9.95;3.90;;;;;;;-1.65;71.89;102204.28;5012837;28;20131;-70
2022/12/17 22:50:53;;;;;;;9.45;4.22;;;;;;;-1.62;71.59;102207.91;5013649;28;20041;-69
2022/12/17 22:53:20;;;;;;;7.88;4.10;;;;;;;-1.60;72.31;102220.78;5011349;28;20049;-69
2022/12/17 22:55:47;;;;;;;9.23;4.00;;;;;;;-1.59;72.21;102217.44;5018343;28;20051;-69
2022/12/17 22:58:16;;;;;;;9.15;4.15;;;;;;;-1.60;72.08;102216.53;5014603;28;20652;-69
2022/12/17 23:00:43;;;;;;;7.25;3.78;;;;;;;-1.56;72.11;102220.16;5015142;28;20510;-69
2022/12/17 23:03:10;;;;;;;9.90;3.42;;;;;;;-1.56;72.28;102222.72;5021278;28;20065;-69
2022/12/17 23:05:36;;;;;;;10.15;3.80;;;;;;;-1.54;72.10;102223.66;5016645;28;20472;-69
2022/12/17 23:08:03;;;;;;;7.13;3.15;;;;;;;-1.52;72.35;102222.09;5018151;28;20046;-69
2022/12/17 23:10:30;;;;;;;6.72;3.13;;;;;;;-1.55;72.16;102216.78;5015205;28;20729;-69
2022/12/17 23:12:57;;;;;;;9.43;3.72;;;;;;;-1.50;72.01;102230.75;5014960;28;20080;-68
2022/12/17 23:15:29;;;;;;;9.32;3.50;;;;;;;-1.49;72.31;102232.50;5014939;28;20057;-69
2022/12/17 23:17:59;;;;;;;8.32;4.35;;;;;;;-1.49;72.69;102232.50;5014153;28;20046;-69
2022/12/17 23:20:27;;;;;;;10.27;4.32;;;;;;;-1.47;72.16;102224.91;5014361;28;20046;-69
2022/12/17 23:22:54;;;;;;;6.25;3.42;;;;;;;-1.45;71.92;102225.84;5014356;28;20452;-69
2022/12/17 23:25:22;;;;;;;7.28;4.03;;;;;;;-1.44;72.26;102227.63;5016542;28;20054;-69
2022/12/17 23:27:49;;;;;;;7.68;3.60;;;;;;;-1.53;72.16;102196.41;5016604;28;20050;-69
2022/12/17 23:30:17;;;;;;;10.15;4.53;;;;;;;-1.41;72.19;102217.53;5017065;28;20115;-69
2022/12/17 23:32:45;;;;;;;6.85;3.30;;;;;;;-1.41;71.99;102210.72;5015106;28;20056;-69
2022/12/17 23:35:13;;;;;;;6.28;3.40;;;;;;;-1.40;72.15;102209.03;5014647;28;20104;-69
2022/12/17 23:37:40;;;;;;;9.57;3.35;;;;;;;-1.38;71.95;102208.31;5017972;28;20437;-69
2022/12/17 23:40:13;;;;;;;7.10;3.75;;;;;;;-1.37;72.46;102204.97;5017596;28;20103;-69
2022/12/17 23:42:40;;;;;;;9.40;3.75;;;;;;;-1.40;72.15;102194.53;5012534;28;20053;-69
2022/12/17 23:45:09;;;;;;;11.82;4.45;;;;;;;-1.35;72.27;102194.78;5008950;28;20095;-69
2022/12/17 23:47:36;;;;;;;8.00;3.00;;;;;;;-1.34;72.38;102195.66;5012334;28;20128;-69
2022/12/17 23:50:06;;;;;;;8.13;3.58;;;;;;;-1.32;72.43;102199.19;5015275;28;20107;-69
2022/12/17 23:52:33;;;;;;;9.73;4.53;;;;;;;-1.31;72.35;102196.72;5015049;28;20049;-69
2022/12/17 23:54:59;;;;;;;11.20;5.13;;;;;;;-1.30;72.58;102195.91;5013065;28;20053;-69
2022/12/17 23:57:26;;;;;;;8.43;4.07;;;;;;;-1.28;72.06;102189.19;5011190;28;20041;-69
2022/12/17 23:59:53;;;;;;;9.77;4.05;;;;;;;-1.29;72.41;102187.41;5012190;28;20049;-69
